createdAt,value
2018-10-18T00:01:40.701Z,10.50
2018-10-18T00:04:09.979Z,9.70
2018-10-18T00:06:39.236Z,9.60
2018-10-18T00:09:10.902Z,9.97
2018-10-18T00:11:40.276Z,10.17
2018-10-18T00:14:10.998Z,10.27
2018-10-18T00:16:40.256Z,9.53
2018-10-18T00:19:09.640Z,9.53
2018-10-18T00:21:38.992Z,10.00
2018-10-18T00:24:08.296Z,9.40
2018-10-18T00:26:37.628Z,9.57
2018-10-18T00:29:07.043Z,9.67
2018-10-18T00:31:36.468Z,9.83
2018-10-18T00:34:05.880Z,9.63
2018-10-18T00:36:35.331Z,10.00
2018-10-18T00:39:07.208Z,9.13
2018-10-18T00:41:36.663Z,10.00
2018-10-18T00:44:07.550Z,9.27
2018-10-18T00:46:36.750Z,10.07
2018-10-18T00:49:07.475Z,9.47
2018-10-18T00:51:36.750Z,8.97
2018-10-18T00:54:07.076Z,9.70
2018-10-18T00:56:36.256Z,8.80
2018-10-18T00:59:05.581Z,9.23
2018-10-18T01:01:34.856Z,10.67
2018-10-18T01:04:04.123Z,9.43
2018-10-18T01:06:33.389Z,9.13
2018-10-18T01:09:02.690Z,9.57
2018-10-18T01:11:31.953Z,9.37
2018-10-18T01:14:01.240Z,9.93
2018-10-18T01:16:30.510Z,9.77
2018-10-18T01:18:59.861Z,10.67
2018-10-18T01:21:29.111Z,10.10
2018-10-18T01:23:58.385Z,9.77
2018-10-18T01:26:27.627Z,10.17
2018-10-18T01:28:56.875Z,9.90
2018-10-18T01:31:26.142Z,9.93
2018-10-18T01:33:55.400Z,9.30
2018-10-18T01:36:24.924Z,9.63
2018-10-18T01:38:54.201Z,9.10
2018-10-18T01:41:23.503Z,9.37
2018-10-18T01:43:52.803Z,9.80
2018-10-18T01:46:22.046Z,9.53
2018-10-18T01:48:51.317Z,9.23
2018-10-18T01:51:20.569Z,9.60
2018-10-18T01:53:49.815Z,8.87
2018-10-18T01:56:19.083Z,9.47
2018-10-18T01:58:48.354Z,9.50
2018-10-18T02:01:17.740Z,9.67
2018-10-18T02:03:47.028Z,9.03
2018-10-18T02:06:16.372Z,9.27
2018-10-18T02:08:45.653Z,9.20
2018-10-18T02:11:14.922Z,10.57
2018-10-18T02:13:44.237Z,9.93
2018-10-18T02:16:13.470Z,9.73
2018-10-18T02:18:42.723Z,10.00
2018-10-18T02:21:11.992Z,9.67
2018-10-18T02:23:41.256Z,9.67
2018-10-18T02:26:10.527Z,9.43
2018-10-18T02:28:39.797Z,9.47
2018-10-18T02:31:09.057Z,9.23
2018-10-18T02:33:38.322Z,9.97
2018-10-18T02:36:07.676Z,9.07
2018-10-18T02:38:36.869Z,9.57
2018-10-18T02:41:06.228Z,9.70
2018-10-18T02:43:35.485Z,8.83
2018-10-18T02:46:04.747Z,9.27
2018-10-18T02:48:34.004Z,9.47
2018-10-18T02:51:03.382Z,9.80
2018-10-18T02:53:32.635Z,9.67
2018-10-18T02:56:01.885Z,9.43
2018-10-18T02:58:31.139Z,9.20
2018-10-18T03:01:00.439Z,8.77
2018-10-18T03:03:29.673Z,9.10
2018-10-18T03:05:59.132Z,9.37
2018-10-18T03:08:28.417Z,8.77
2018-10-18T03:10:57.691Z,9.23
2018-10-18T03:13:26.961Z,8.83
2018-10-18T03:15:56.287Z,8.77
2018-10-18T03:18:25.487Z,9.70
2018-10-18T03:20:54.736Z,9.40
2018-10-18T03:23:24.007Z,9.70
2018-10-18T03:25:53.249Z,8.67
2018-10-18T03:28:22.501Z,9.50
2018-10-18T03:30:51.758Z,8.70
2018-10-18T03:33:20.996Z,8.97
2018-10-18T03:35:50.268Z,9.63
2018-10-18T03:38:19.525Z,8.83
2018-10-18T03:40:48.798Z,8.63
2018-10-18T03:43:18.051Z,9.77
2018-10-18T03:45:47.382Z,9.23
2018-10-18T03:48:16.696Z,9.47
2018-10-18T03:50:45.928Z,9.40
2018-10-18T03:53:15.212Z,9.63
2018-10-18T03:55:44.506Z,9.93
2018-10-18T03:58:13.785Z,9.90
2018-10-18T04:00:43.271Z,9.80
2018-10-18T04:03:12.557Z,10.13
2018-10-18T04:05:41.813Z,10.13
2018-10-18T04:08:11.107Z,9.97
2018-10-18T04:10:40.352Z,9.03
2018-10-18T04:13:09.680Z,9.57
2018-10-18T04:15:38.883Z,9.67
2018-10-18T04:18:08.304Z,10.47
2018-10-18T04:20:37.470Z,9.73
2018-10-18T04:23:06.740Z,9.43
2018-10-18T04:25:36.075Z,9.87
2018-10-18T04:28:05.584Z,10.07
2018-10-18T04:30:34.915Z,10.47
2018-10-18T04:33:04.333Z,10.07
2018-10-18T04:35:33.588Z,9.20
2018-10-18T04:38:02.868Z,10.10
2018-10-18T04:40:32.127Z,9.70
2018-10-18T04:43:01.476Z,8.97
2018-10-18T04:45:30.741Z,9.70
2018-10-18T04:48:00.193Z,9.47
2018-10-18T04:50:29.324Z,9.57
2018-10-18T04:52:58.637Z,8.67
2018-10-18T04:55:28.058Z,9.63
2018-10-18T04:57:57.405Z,10.47
2018-10-18T05:00:26.687Z,9.50
2018-10-18T05:02:55.975Z,8.97
2018-10-18T05:05:42.221Z,9.40
2018-10-18T05:08:11.522Z,9.50
2018-10-18T05:10:40.848Z,9.70
2018-10-18T05:13:10.135Z,9.30
2018-10-18T05:15:39.414Z,9.17
2018-10-18T05:18:08.864Z,9.80
2018-10-18T05:20:38.143Z,9.70
2018-10-18T05:23:07.751Z,9.43
2018-10-18T05:25:37.197Z,9.57
2018-10-18T05:28:06.691Z,9.00
2018-10-18T05:30:35.972Z,8.93
2018-10-18T05:33:05.492Z,8.77
2018-10-18T05:35:34.751Z,10.17
2018-10-18T05:38:04.029Z,9.47
2018-10-18T05:40:33.291Z,9.70
2018-10-18T05:43:02.823Z,9.07
2018-10-18T05:45:32.133Z,10.27
2018-10-18T05:48:01.430Z,8.87
2018-10-18T05:50:30.709Z,9.23
2018-10-18T05:53:00.039Z,8.97
2018-10-18T05:55:29.288Z,9.00
2018-10-18T05:57:58.601Z,8.87
2018-10-18T06:00:27.852Z,9.60
2018-10-18T06:02:57.106Z,8.80
2018-10-18T06:05:26.346Z,8.23
2018-10-18T06:07:55.603Z,9.30
2018-10-18T06:10:41.953Z,9.87
2018-10-18T06:13:11.329Z,9.03
2018-10-18T06:15:40.608Z,10.40
2018-10-18T06:18:09.889Z,10.27
2018-10-18T06:20:39.148Z,10.30
2018-10-18T06:23:08.453Z,10.93
2018-10-18T06:25:37.671Z,11.27
2018-10-18T06:28:06.931Z,11.23
2018-10-18T06:30:36.233Z,11.03
2018-10-18T06:33:05.518Z,10.53
2018-10-18T06:35:34.790Z,10.67
2018-10-18T06:38:04.059Z,10.80
2018-10-18T06:40:33.321Z,10.90
2018-10-18T06:43:02.714Z,10.70
2018-10-18T06:45:31.847Z,11.03
2018-10-18T06:48:01.190Z,10.63
2018-10-18T06:50:30.430Z,10.17
2018-10-18T06:52:59.720Z,10.87
2018-10-18T06:55:28.998Z,10.50
2018-10-18T06:57:58.313Z,11.10
2018-10-18T07:00:27.651Z,10.03
2018-10-18T07:02:56.898Z,10.53
2018-10-18T07:05:26.135Z,10.70
2018-10-18T07:07:55.408Z,10.40
2018-10-18T07:10:24.645Z,9.23
2018-10-18T07:12:53.906Z,9.67
2018-10-18T07:15:23.169Z,9.43
2018-10-18T07:17:52.436Z,10.50
2018-10-18T07:20:21.719Z,10.30
2018-10-18T07:22:51.046Z,10.07
2018-10-18T07:25:20.431Z,9.73
2018-10-18T07:27:49.661Z,10.03
2018-10-18T07:30:19.016Z,10.57
2018-10-18T07:32:48.219Z,9.77
2018-10-18T07:35:17.490Z,10.83
2018-10-18T07:37:46.749Z,10.60
2018-10-18T07:40:16.669Z,9.43
2018-10-18T07:42:45.922Z,7.73
2018-10-18T07:45:15.655Z,8.70
2018-10-18T07:47:45.581Z,10.13
2018-10-18T07:50:14.847Z,9.93
2018-10-18T07:52:44.119Z,11.00
2018-10-18T07:55:13.391Z,10.97
2018-10-18T07:57:42.649Z,11.50
2018-10-18T08:00:13.901Z,11.33
2018-10-18T08:02:43.746Z,11.90
2018-10-18T08:05:13.372Z,10.47
2018-10-18T08:07:42.669Z,12.20
2018-10-18T08:10:19.154Z,12.80
2018-10-18T08:12:48.448Z,11.80
2018-10-18T08:15:18.150Z,13.37
2018-10-18T08:17:47.436Z,13.20
2018-10-18T08:20:16.729Z,14.40
2018-10-18T08:22:46.042Z,14.03
2018-10-18T08:25:15.385Z,14.13
2018-10-18T08:27:44.679Z,13.13
2018-10-18T08:30:14.452Z,13.23
2018-10-18T08:32:43.709Z,13.67
2018-10-18T08:35:13.382Z,14.33
2018-10-18T08:37:42.720Z,14.67
2018-10-18T08:40:11.946Z,13.40
2018-10-18T08:42:41.203Z,14.03
2018-10-18T08:45:11.723Z,15.13
2018-10-18T08:47:41.038Z,15.07
2018-10-18T08:50:11.684Z,15.07
2018-10-18T08:52:40.933Z,14.03
2018-10-18T08:55:12.694Z,15.83
2018-10-18T08:57:42.685Z,15.93
2018-10-18T09:00:12.811Z,16.93
2018-10-18T09:02:42.920Z,16.40
2018-10-18T09:05:12.300Z,16.50
2018-10-18T09:07:41.550Z,15.53
2018-10-18T09:10:10.811Z,18.47
2018-10-18T09:12:40.045Z,17.67
2018-10-18T09:15:09.954Z,16.60
2018-10-18T09:17:39.429Z,17.80
2018-10-18T09:20:08.975Z,17.07
2018-10-18T09:22:38.291Z,16.87
2018-10-18T09:25:09.133Z,15.10
2018-10-18T09:27:38.450Z,15.70
2018-10-18T09:30:10.083Z,16.47
2018-10-18T09:32:39.325Z,15.63
2018-10-18T09:35:08.637Z,16.03
2018-10-18T09:37:38.046Z,14.40
2018-10-18T09:40:09.655Z,14.17
2018-10-18T09:42:39.068Z,14.00
2018-10-18T09:45:10.701Z,14.10
2018-10-18T09:47:40.012Z,14.10
2018-10-18T09:50:11.772Z,14.17
2018-10-18T09:52:41.165Z,13.27
2018-10-18T09:55:12.051Z,14.17
2018-10-18T09:57:41.533Z,13.73
2018-10-18T10:00:16.111Z,13.93
2018-10-18T10:02:49.886Z,13.73
2018-10-18T10:05:20.329Z,14.20
2018-10-18T10:07:49.566Z,13.90
2018-10-18T10:10:18.934Z,13.80
2018-10-18T10:12:48.221Z,13.90
2018-10-18T10:15:17.555Z,13.83
2018-10-18T10:17:46.884Z,13.23
2018-10-18T10:20:16.132Z,12.70
2018-10-18T10:22:45.434Z,13.00
2018-10-18T10:25:14.755Z,14.17
2018-10-18T10:27:44.087Z,14.27
2018-10-18T10:30:13.414Z,14.03
2018-10-18T10:32:42.770Z,14.70
2018-10-18T10:35:12.113Z,13.17
2018-10-18T10:37:41.361Z,13.40
2018-10-18T10:40:11.285Z,13.30
2018-10-18T10:42:41.717Z,14.03
2018-10-18T10:45:11.965Z,12.33
2018-10-18T10:47:41.234Z,12.93
2018-10-18T10:50:10.851Z,13.23
2018-10-18T10:52:40.434Z,12.50
2018-10-18T10:55:10.828Z,12.73
2018-10-18T10:57:40.150Z,13.77
2018-10-18T11:00:09.451Z,12.07
2018-10-18T11:02:38.709Z,13.57
2018-10-18T11:05:07.975Z,12.30
2018-10-18T11:07:37.262Z,11.77
2018-10-18T11:10:06.798Z,12.23
2018-10-18T11:12:36.103Z,12.13
2018-10-18T11:15:05.720Z,11.70
2018-10-18T11:17:35.003Z,11.43
2018-10-18T11:20:04.343Z,11.67
2018-10-18T11:22:33.678Z,11.77
2018-10-18T11:25:02.935Z,10.63
2018-10-18T11:27:32.280Z,11.37
2018-10-18T11:30:01.577Z,10.83
2018-10-18T11:32:30.864Z,11.10
2018-10-18T11:35:00.169Z,10.63
2018-10-18T11:37:29.501Z,11.17
2018-10-18T11:39:58.820Z,11.30
2018-10-18T11:42:28.161Z,10.83
2018-10-18T11:44:57.436Z,10.87
2018-10-18T11:47:26.761Z,10.90
2018-10-18T11:49:56.100Z,10.93
2018-10-18T11:52:25.421Z,11.03
2018-10-18T11:54:54.705Z,11.23
2018-10-18T11:57:24.023Z,10.87
2018-10-18T11:59:53.323Z,12.10
2018-10-18T12:02:22.645Z,12.37
2018-10-18T12:04:51.969Z,11.60
2018-10-18T12:07:21.273Z,10.70
2018-10-18T12:09:50.552Z,14.27
2018-10-18T12:12:19.876Z,11.03
2018-10-18T12:14:49.225Z,10.83
2018-10-18T12:17:18.515Z,10.07
2018-10-18T12:19:47.837Z,10.73
2018-10-18T12:22:17.167Z,10.93
2018-10-18T12:24:46.472Z,10.20
2018-10-18T12:27:15.801Z,10.30
2018-10-18T12:29:45.167Z,11.10
2018-10-18T12:32:14.544Z,10.37
2018-10-18T12:34:43.878Z,9.07
2018-10-18T12:37:13.243Z,9.80
2018-10-18T12:39:42.666Z,10.23
2018-10-18T12:42:11.910Z,10.47
2018-10-18T12:44:41.653Z,9.37
2018-10-18T12:47:12.002Z,10.00
2018-10-18T12:49:42.343Z,10.27
2018-10-18T12:52:12.778Z,10.27
2018-10-18T12:54:42.243Z,9.23
2018-10-18T12:57:12.721Z,10.53
2018-10-18T12:59:42.025Z,10.60
2018-10-18T13:02:11.467Z,9.77
2018-10-18T13:04:40.875Z,9.07
2018-10-18T13:07:10.295Z,9.73
2018-10-18T13:09:39.725Z,9.97
2018-10-18T13:12:09.102Z,10.10
2018-10-18T13:14:38.386Z,9.37
2018-10-18T13:17:07.827Z,10.30
2018-10-18T13:19:37.151Z,10.60
2018-10-18T13:22:06.595Z,9.90
2018-10-18T13:24:36.013Z,10.33
2018-10-18T13:27:05.411Z,9.83
2018-10-18T13:29:34.798Z,10.30
2018-10-18T13:32:04.110Z,10.87
2018-10-18T13:34:33.821Z,10.97
2018-10-18T13:37:03.121Z,11.03
2018-10-18T13:39:32.427Z,10.23
2018-10-18T13:42:01.832Z,11.20
2018-10-18T13:44:31.097Z,11.40
2018-10-18T13:47:00.389Z,10.77
2018-10-18T13:49:29.693Z,10.63
2018-10-18T13:51:58.965Z,11.03
2018-10-18T13:54:28.278Z,10.33
2018-10-18T13:56:57.644Z,10.90
2018-10-18T13:59:44.114Z,10.33
2018-10-18T14:02:13.599Z,11.43
2018-10-18T14:04:42.690Z,10.33
2018-10-18T14:07:12.048Z,10.20
2018-10-18T14:09:41.364Z,9.17
2018-10-18T14:12:10.686Z,9.13
2018-10-18T14:14:39.983Z,9.57
2018-10-18T14:17:09.356Z,9.70
2018-10-18T14:19:38.871Z,11.20
2018-10-18T14:22:08.159Z,11.67
2018-10-18T14:24:37.588Z,10.60
2018-10-18T14:27:06.943Z,9.60
2018-10-18T14:29:36.281Z,9.83
2018-10-18T14:32:06.023Z,9.67
2018-10-18T14:34:35.340Z,9.80
2018-10-18T14:37:04.643Z,10.67
2018-10-18T14:39:33.951Z,11.27
2018-10-18T14:42:03.233Z,9.97
2018-10-18T14:44:32.632Z,10.10
2018-10-18T14:47:01.872Z,10.27
2018-10-18T14:49:31.212Z,10.40
2018-10-18T14:52:00.571Z,11.77
2018-10-18T14:54:29.892Z,11.23
2018-10-18T14:56:59.213Z,12.63
2018-10-18T14:59:28.521Z,12.93
2018-10-18T15:01:57.894Z,13.37
2018-10-18T15:04:27.228Z,11.73
2018-10-18T15:06:56.460Z,11.63
2018-10-18T15:09:25.745Z,12.67
2018-10-18T15:11:55.055Z,13.03
2018-10-18T15:14:24.348Z,12.77
2018-10-18T15:16:53.661Z,12.77
2018-10-18T15:19:22.969Z,13.47
2018-10-18T15:21:52.302Z,15.07
2018-10-18T15:24:21.603Z,13.77
2018-10-18T15:26:51.063Z,14.37
2018-10-18T15:29:20.372Z,15.13
2018-10-18T15:31:49.659Z,16.30
2018-10-18T15:34:19.000Z,13.90
2018-10-18T15:36:48.282Z,14.27
2018-10-18T15:39:17.702Z,15.27
2018-10-18T15:41:46.881Z,14.33
2018-10-18T15:44:16.242Z,16.27
2018-10-18T15:46:45.498Z,15.00
2018-10-18T15:49:14.803Z,16.37
2018-10-18T15:51:44.108Z,16.10
2018-10-18T15:54:13.478Z,17.20
2018-10-18T15:56:42.706Z,15.83
2018-10-18T15:59:12.059Z,16.63
2018-10-18T16:01:41.366Z,16.73
2018-10-18T16:04:10.648Z,16.13
2018-10-18T16:06:39.977Z,15.60
2018-10-18T16:09:11.715Z,16.03
2018-10-18T16:11:41.072Z,16.33
2018-10-18T16:14:10.423Z,15.87
2018-10-18T16:16:39.699Z,16.47
2018-10-18T16:19:09.013Z,16.67
2018-10-18T16:21:38.309Z,16.00
2018-10-18T16:24:07.657Z,17.30
2018-10-18T16:26:36.929Z,17.13
2018-10-18T16:29:06.466Z,17.53
2018-10-18T16:31:35.780Z,17.53
2018-10-18T16:34:05.365Z,16.77
2018-10-18T16:36:34.796Z,16.90
2018-10-18T16:39:06.152Z,15.97
2018-10-18T16:41:35.583Z,16.77
2018-10-18T16:44:04.837Z,16.60
2018-10-18T16:46:34.152Z,16.80
2018-10-18T16:49:03.496Z,16.80
2018-10-18T16:51:32.892Z,16.63
2018-10-18T16:54:02.551Z,15.83
2018-10-18T16:56:31.835Z,15.50
2018-10-18T16:59:01.138Z,15.27
2018-10-18T17:01:30.497Z,16.57
2018-10-18T17:03:59.839Z,17.37
2018-10-18T17:06:29.188Z,17.03
2018-10-18T17:08:58.452Z,16.87
2018-10-18T17:11:27.861Z,15.93
2018-10-18T17:13:57.126Z,16.70
2018-10-18T17:16:26.436Z,17.53
2018-10-18T17:18:55.712Z,17.07
2018-10-18T17:21:25.043Z,17.63
2018-10-18T17:23:54.395Z,17.43
2018-10-18T17:26:23.709Z,17.83
2018-10-18T17:28:53.079Z,16.73
2018-10-18T17:31:22.422Z,19.40
2018-10-18T17:33:51.741Z,19.27
2018-10-18T17:36:21.105Z,16.97
2018-10-18T17:38:50.473Z,18.63
2018-10-18T17:41:19.783Z,16.63
2018-10-18T17:43:49.109Z,17.67
2018-10-18T17:46:18.544Z,18.90
2018-10-18T17:48:47.756Z,18.43
2018-10-18T17:51:17.065Z,18.10
2018-10-18T17:53:46.373Z,18.57
2018-10-18T17:56:15.773Z,17.87
2018-10-18T17:58:45.020Z,17.27
2018-10-18T18:01:14.368Z,17.60
2018-10-18T18:03:43.709Z,17.27
2018-10-18T18:06:13.245Z,18.53
2018-10-18T18:08:42.380Z,18.67
2018-10-18T18:11:11.702Z,17.83
2018-10-18T18:13:41.019Z,17.27
2018-10-18T18:16:10.362Z,18.00
2018-10-18T18:18:39.674Z,17.03
2018-10-18T18:21:09.029Z,16.67
2018-10-18T18:23:38.386Z,17.87
2018-10-18T18:26:07.711Z,15.70
2018-10-18T18:28:37.037Z,17.57
2018-10-18T18:31:06.411Z,16.77
2018-10-18T18:33:35.732Z,17.07
2018-10-18T18:36:05.246Z,16.23
2018-10-18T18:38:34.543Z,17.50
2018-10-18T18:41:03.903Z,15.53
2018-10-18T18:43:33.342Z,18.00
2018-10-18T18:46:02.643Z,16.13
2018-10-18T18:48:31.969Z,17.37
2018-10-18T18:51:01.316Z,18.93
2018-10-18T18:53:30.679Z,16.13
2018-10-18T18:55:59.922Z,16.77
2018-10-18T18:58:29.219Z,17.97
2018-10-18T19:00:58.521Z,16.63
2018-10-18T19:03:27.805Z,18.97
2018-10-18T19:05:57.128Z,18.40
2018-10-18T19:08:26.577Z,19.57
2018-10-18T19:10:55.878Z,17.40
2018-10-18T19:13:25.187Z,17.87
2018-10-18T19:15:54.507Z,18.17
2018-10-18T19:18:23.814Z,17.13
2018-10-18T19:20:53.116Z,17.83
2018-10-18T19:23:22.491Z,18.57
2018-10-18T19:25:51.757Z,18.70
2018-10-18T19:28:21.062Z,18.13
2018-10-18T19:30:50.442Z,18.90
2018-10-18T19:33:19.743Z,17.53
2018-10-18T19:35:49.061Z,18.27
2018-10-18T19:38:18.387Z,18.13
2018-10-18T19:40:47.688Z,18.70
2018-10-18T19:43:16.982Z,18.67
2018-10-18T19:45:47.283Z,17.80
2018-10-18T19:48:16.585Z,17.80
2018-10-18T19:50:45.883Z,17.90
2018-10-18T19:53:15.192Z,17.73
2018-10-18T19:55:44.465Z,18.67
2018-10-18T19:58:13.831Z,17.90
2018-10-18T20:00:43.192Z,17.90
2018-10-18T20:03:12.478Z,16.27
2018-10-18T20:05:41.786Z,16.63
2018-10-18T20:08:11.089Z,17.43
2018-10-18T20:10:40.402Z,16.60
2018-10-18T20:13:09.729Z,18.37
2018-10-18T20:15:39.050Z,17.70
2018-10-18T20:18:08.455Z,18.77
2018-10-18T20:20:37.725Z,16.33
2018-10-18T20:23:07.018Z,16.40
2018-10-18T20:25:36.458Z,16.20
2018-10-18T20:28:06.066Z,17.03
2018-10-18T20:30:35.423Z,16.70
2018-10-18T20:33:05.007Z,16.17
2018-10-18T20:35:34.353Z,17.13
2018-10-18T20:38:03.647Z,17.07
2018-10-18T20:40:32.962Z,17.40
2018-10-18T20:43:02.373Z,17.60
2018-10-18T20:45:34.345Z,18.03
2018-10-18T20:48:03.903Z,17.90
2018-10-18T20:50:33.068Z,18.47
2018-10-18T20:53:02.476Z,18.07
2018-10-18T20:55:31.727Z,19.23
2018-10-18T20:58:01.041Z,19.00
2018-10-18T21:00:30.380Z,17.93
2018-10-18T21:02:59.705Z,17.63
2018-10-18T21:05:29.021Z,18.07
2018-10-18T21:07:58.344Z,16.67
2018-10-18T21:10:27.673Z,19.00
2018-10-18T21:12:57.058Z,17.93
2018-10-18T21:15:26.328Z,15.97
2018-10-18T21:17:55.622Z,16.67
2018-10-18T21:20:24.922Z,16.87
2018-10-18T21:22:54.251Z,16.70
2018-10-18T21:25:23.673Z,17.53
2018-10-18T21:27:53.045Z,17.70
2018-10-18T21:30:22.317Z,17.30
2018-10-18T21:32:51.638Z,16.93
2018-10-18T21:35:20.940Z,16.40
2018-10-18T21:37:50.254Z,18.57
2018-10-18T21:40:19.560Z,17.67
2018-10-18T21:42:48.871Z,17.83
2018-10-18T21:45:18.572Z,17.07
2018-10-18T21:47:47.938Z,16.77
2018-10-18T21:50:17.323Z,16.93
2018-10-18T21:52:46.646Z,17.87
2018-10-18T21:55:15.956Z,16.73
2018-10-18T21:57:45.242Z,17.13
2018-10-18T22:00:16.123Z,16.47
2018-10-18T22:02:46.259Z,16.90
2018-10-18T22:05:16.559Z,15.73
2018-10-18T22:07:45.823Z,17.57
2018-10-18T22:10:15.126Z,16.60
2018-10-18T22:12:44.423Z,17.17
2018-10-18T22:15:13.803Z,17.27
2018-10-18T22:17:43.102Z,17.30
2018-10-18T22:20:12.419Z,16.63
2018-10-18T22:22:41.717Z,17.30
2018-10-18T22:25:11.031Z,17.63
2018-10-18T22:27:40.337Z,17.13
2018-10-18T22:30:09.669Z,15.67
2018-10-18T22:32:38.982Z,15.50
2018-10-18T22:35:08.305Z,16.80
2018-10-18T22:37:37.654Z,17.17
2018-10-18T22:40:08.108Z,16.30
2018-10-18T22:42:37.437Z,17.60
2018-10-18T22:45:08.213Z,16.57
2018-10-18T22:47:37.613Z,16.73
2018-10-18T22:50:06.938Z,15.40
2018-10-18T22:52:36.271Z,16.70
2018-10-18T22:55:06.185Z,16.83
2018-10-18T22:57:35.511Z,17.30
2018-10-18T23:00:06.021Z,14.60
2018-10-18T23:02:35.344Z,16.73
2018-10-18T23:05:04.840Z,16.13
2018-10-18T23:07:34.129Z,16.03
2018-10-18T23:10:03.531Z,15.97
2018-10-18T23:12:32.827Z,15.60
2018-10-18T23:15:02.434Z,16.03
2018-10-18T23:17:31.755Z,17.30
2018-10-18T23:20:01.068Z,16.93
2018-10-18T23:22:30.378Z,17.57
2018-10-18T23:24:59.651Z,16.90
2018-10-18T23:27:31.480Z,15.30
2018-10-18T23:30:00.774Z,16.50
2018-10-18T23:32:30.091Z,16.63
2018-10-18T23:34:59.446Z,16.27
2018-10-18T23:37:28.745Z,16.97
2018-10-18T23:39:58.077Z,16.70
2018-10-18T23:42:27.369Z,15.77
2018-10-18T23:44:56.738Z,15.77
2018-10-18T23:47:26.017Z,16.83
2018-10-18T23:49:55.379Z,16.90
2018-10-18T23:52:24.756Z,15.93
2018-10-18T23:54:54.121Z,16.43
2018-10-18T23:57:23.563Z,16.67
2018-10-18T23:59:52.856Z,16.20
